createdAt,value
2022-10-21T00:00:57.697Z,9.13
2022-10-21T00:03:26.834Z,9.08
2022-10-21T00:05:54.329Z,8.99
2022-10-21T00:08:22.009Z,8.93
2022-10-21T00:10:54.237Z,8.93
2022-10-21T00:13:22.112Z,8.93
2022-10-21T00:16:00.259Z,8.92
2022-10-21T00:18:28.809Z,8.91
2022-10-21T00:20:56.465Z,8.87
2022-10-21T00:23:24.293Z,8.85
2022-10-21T00:25:57.185Z,8.86
2022-10-21T00:28:24.512Z,8.85
2022-10-21T00:30:52.044Z,8.85
2022-10-21T00:33:19.313Z,8.84
2022-10-21T00:35:54.755Z,8.82
2022-10-21T00:40:54.490Z,8.91
2022-10-21T00:43:22.029Z,8.87
2022-10-21T00:45:53.135Z,8.88
2022-10-21T00:48:43.381Z,8.85
2022-10-21T00:51:18.008Z,8.84
2022-10-21T00:53:49.974Z,8.79
2022-10-21T00:56:24.541Z,8.70
2022-10-21T00:58:54.416Z,8.56
2022-10-21T01:01:22.515Z,8.41
2022-10-21T01:03:51.345Z,8.43
2022-10-21T01:06:21.982Z,8.37
2022-10-21T01:08:50.427Z,8.33
2022-10-21T01:11:19.709Z,8.31
2022-10-21T01:14:12.157Z,8.32
2022-10-21T01:17:26.225Z,8.28
2022-10-21T01:20:38.472Z,8.35
2022-10-21T01:23:05.872Z,8.39
2022-10-21T01:26:04.430Z,8.35
2022-10-21T01:29:17.676Z,8.36
2022-10-21T01:31:48.086Z,8.39
2022-10-21T01:34:20.993Z,8.40
2022-10-21T01:36:57.356Z,8.41
2022-10-21T01:39:43.379Z,8.42
2022-10-21T01:42:30.221Z,8.48
2022-10-21T01:44:57.415Z,8.47
2022-10-21T01:47:40.739Z,8.47
2022-10-21T01:50:14.357Z,8.45
2022-10-21T01:52:45.081Z,8.47
2022-10-21T01:55:18.212Z,8.45
2022-10-21T01:57:53.908Z,8.46
2022-10-21T02:00:21.884Z,8.52
2022-10-21T02:02:49.855Z,8.50
2022-10-21T02:05:23.298Z,8.50
2022-10-21T02:07:50.544Z,8.53
2022-10-21T02:10:19.011Z,8.55
2022-10-21T02:12:49.415Z,8.57
2022-10-21T02:15:18.622Z,8.57
2022-10-21T02:17:52.307Z,8.51
2022-10-21T02:20:21.126Z,8.49
2022-10-21T02:22:49.482Z,8.50
2022-10-21T02:25:21.842Z,8.50
2022-10-21T02:27:51.436Z,8.44
2022-10-21T02:30:19.267Z,8.44
2022-10-21T02:32:55.748Z,8.43
2022-10-21T02:35:39.944Z,8.41
2022-10-21T02:38:30.696Z,8.44
2022-10-21T02:41:05.455Z,8.46
2022-10-21T02:43:36.718Z,8.44
2022-10-21T02:46:13.913Z,8.35
2022-10-21T02:48:48.245Z,8.37
2022-10-21T02:51:16.095Z,8.40
2022-10-21T02:53:43.911Z,8.40
2022-10-21T02:56:11.223Z,8.42
2022-10-21T02:58:39.426Z,8.42
2022-10-21T03:01:07.115Z,8.45
2022-10-21T03:03:34.372Z,8.45
2022-10-21T03:06:01.551Z,8.47
2022-10-21T03:08:28.831Z,8.49
2022-10-21T03:10:57.892Z,8.45
2022-10-21T03:13:26.047Z,8.48
2022-10-21T03:15:58.519Z,8.47
2022-10-21T03:18:26.638Z,8.50
2022-10-21T03:20:54.778Z,8.47
2022-10-21T03:23:22.314Z,8.47
2022-10-21T03:25:49.850Z,8.47
2022-10-21T03:28:20.352Z,8.50
2022-10-21T03:30:47.558Z,8.56
2022-10-21T03:33:14.811Z,8.48
2022-10-21T03:35:42.011Z,8.50
2022-10-21T03:38:09.506Z,8.41
2022-10-21T03:40:36.825Z,8.39
2022-10-21T03:43:04.098Z,8.36
2022-10-21T03:45:31.464Z,8.37
2022-10-21T03:47:58.779Z,8.27
2022-10-21T03:50:26.795Z,8.22
2022-10-21T03:52:55.085Z,8.21
2022-10-21T03:55:24.356Z,8.22
2022-10-21T03:57:52.908Z,8.23
2022-10-21T04:00:21.252Z,8.19
2022-10-21T04:02:48.878Z,8.17
2022-10-21T04:05:16.405Z,8.22
2022-10-21T04:07:43.667Z,8.18
2022-10-21T04:10:12.173Z,8.10
2022-10-21T04:12:39.710Z,8.05
2022-10-21T04:15:07.887Z,8.05
2022-10-21T04:17:35.011Z,8.00
2022-10-21T04:20:02.183Z,7.99
2022-10-21T04:22:35.968Z,7.97
2022-10-21T04:25:04.993Z,7.95
2022-10-21T04:27:38.449Z,7.98
2022-10-21T04:30:31.561Z,8.01
2022-10-21T04:32:59.116Z,7.97
2022-10-21T04:35:26.585Z,7.96
2022-10-21T04:37:53.912Z,7.96
2022-10-21T04:40:21.283Z,8.02
2022-10-21T04:42:52.176Z,8.00
2022-10-21T04:45:19.480Z,7.99
2022-10-21T04:47:46.709Z,7.99
2022-10-21T04:50:13.940Z,8.00
2022-10-21T04:52:41.457Z,7.99
2022-10-21T04:55:09.159Z,7.98
2022-10-21T04:57:36.490Z,8.00
2022-10-21T05:00:05.569Z,7.95
2022-10-21T05:02:33.122Z,7.93
2022-10-21T05:05:00.964Z,7.97
2022-10-21T05:07:28.148Z,7.97
2022-10-21T05:09:55.346Z,8.00
2022-10-21T05:12:23.137Z,8.00
2022-10-21T05:14:50.770Z,8.02
2022-10-21T05:17:18.020Z,7.97
2022-10-21T05:19:45.410Z,7.90
2022-10-21T05:22:12.810Z,7.94
2022-10-21T05:24:40.104Z,7.93
2022-10-21T05:27:07.473Z,7.94
2022-10-21T05:29:34.811Z,7.91
2022-10-21T05:32:02.040Z,7.86
2022-10-21T05:34:29.297Z,7.87
2022-10-21T05:36:56.489Z,7.84
2022-10-21T05:39:23.855Z,7.84
2022-10-21T05:41:51.280Z,7.86
2022-10-21T05:44:19.308Z,7.83
2022-10-21T05:46:46.648Z,7.79
2022-10-21T05:49:13.965Z,7.78
2022-10-21T05:51:45.026Z,7.85
2022-10-21T05:54:12.676Z,7.86
2022-10-21T05:56:42.656Z,7.85
2022-10-21T05:59:10.447Z,7.83
2022-10-21T06:01:40.887Z,7.87
2022-10-21T06:04:08.309Z,7.83
2022-10-21T06:06:35.706Z,7.78
2022-10-21T06:09:03.968Z,7.80
2022-10-21T06:11:32.024Z,7.74
2022-10-21T06:14:00.124Z,7.75
2022-10-21T06:16:27.483Z,7.79
2022-10-21T06:18:54.830Z,7.84
2022-10-21T06:21:22.806Z,7.82
2022-10-21T06:23:53.475Z,7.89
2022-10-21T06:26:24.687Z,7.87
2022-10-21T06:28:51.981Z,7.91
2022-10-21T06:31:21.670Z,7.92
2022-10-21T06:33:49.404Z,7.94
2022-10-21T06:36:17.097Z,7.94
2022-10-21T06:38:44.974Z,7.93
2022-10-21T06:41:13.658Z,8.00
2022-10-21T06:43:42.430Z,8.04
2022-10-21T06:46:13.254Z,8.09
2022-10-21T06:48:41.241Z,8.07
2022-10-21T06:51:10.213Z,8.09
2022-10-21T06:53:39.217Z,8.12
2022-10-21T06:56:12.425Z,8.11
2022-10-21T06:58:43.470Z,8.13
2022-10-21T07:01:27.425Z,8.22
2022-10-21T07:04:01.583Z,8.35
2022-10-21T07:06:29.422Z,8.45
2022-10-21T07:08:58.850Z,8.54
2022-10-21T07:11:28.093Z,8.60
2022-10-21T07:13:56.001Z,8.60
2022-10-21T07:16:27.397Z,8.69
2022-10-21T07:18:55.323Z,8.73
2022-10-21T07:21:23.702Z,8.85
2022-10-21T07:23:52.657Z,8.86
2022-10-21T07:26:21.555Z,8.90
2022-10-21T07:28:49.311Z,8.91
2022-10-21T07:31:22.308Z,8.89
2022-10-21T07:33:49.866Z,8.92
2022-10-21T07:36:19.077Z,8.88
2022-10-21T07:38:49.308Z,8.90
2022-10-21T07:41:25.538Z,8.88
2022-10-21T07:43:53.080Z,8.98
2022-10-21T07:46:21.628Z,8.86
2022-10-21T07:48:49.558Z,8.86
2022-10-21T07:51:18.634Z,8.91
2022-10-21T07:53:46.663Z,8.97
2022-10-21T07:56:20.232Z,8.92
2022-10-21T07:58:48.553Z,8.89
2022-10-21T08:01:17.402Z,8.87
2022-10-21T08:03:45.544Z,8.87
2022-10-21T08:06:16.923Z,8.85
2022-10-21T08:08:49.879Z,8.89
2022-10-21T08:11:29.472Z,9.04
2022-10-21T08:13:57.517Z,9.09
2022-10-21T08:16:27.990Z,9.10
2022-10-21T08:18:55.876Z,9.15
2022-10-21T08:21:23.054Z,9.19
2022-10-21T08:23:50.295Z,9.20
2022-10-21T08:26:17.657Z,9.28
2022-10-21T08:28:45.328Z,9.46
2022-10-21T08:31:15.884Z,9.63
2022-10-21T08:33:43.634Z,9.85
2022-10-21T08:36:25.047Z,10.11
2022-10-21T08:38:55.209Z,10.02
2022-10-21T08:41:31.536Z,9.83
2022-10-21T08:44:20.398Z,9.84
2022-10-21T08:46:56.451Z,9.76
2022-10-21T08:49:39.030Z,10.06
2022-10-21T08:52:12.101Z,10.50
2022-10-21T08:54:47.075Z,10.69
2022-10-21T08:57:14.716Z,10.88
2022-10-21T08:59:42.978Z,11.12
2022-10-21T09:02:13.298Z,11.14
2022-10-21T09:04:52.585Z,11.11
2022-10-21T09:07:32.438Z,11.49
2022-10-21T09:10:03.325Z,11.54
2022-10-21T09:12:55.450Z,11.48
2022-10-21T09:15:33.270Z,11.54
2022-10-21T09:18:26.590Z,11.63
2022-10-21T09:21:07.612Z,11.74
2022-10-21T09:23:50.222Z,11.31
2022-10-21T09:27:07.079Z,10.97
2022-10-21T09:29:44.975Z,11.23
2022-10-21T09:32:31.766Z,11.38
2022-10-21T09:35:06.465Z,11.45
2022-10-21T09:38:09.655Z,11.53
2022-10-21T09:40:37.030Z,11.38
2022-10-21T09:43:06.057Z,11.10
2022-10-21T09:45:37.589Z,11.01
2022-10-21T09:48:17.921Z,10.90
2022-10-21T09:50:54.336Z,10.90
2022-10-21T09:53:33.736Z,11.11
2022-10-21T09:56:23.962Z,11.34
2022-10-21T09:59:14.306Z,11.58
2022-10-21T10:01:43.629Z,11.50
2022-10-21T10:04:24.344Z,11.38
2022-10-21T10:06:52.083Z,11.32
2022-10-21T10:09:28.284Z,11.31
2022-10-21T10:12:21.710Z,11.30
2022-10-21T10:14:49.521Z,11.33
2022-10-21T10:17:31.011Z,11.38
2022-10-21T10:20:04.409Z,11.34
2022-10-21T10:22:43.089Z,11.34
2022-10-21T10:25:19.169Z,11.25
2022-10-21T10:27:59.377Z,11.23
2022-10-21T10:30:37.610Z,11.16
2022-10-21T10:33:16.937Z,11.11
2022-10-21T10:35:57.621Z,11.08
2022-10-21T10:38:37.709Z,11.07
2022-10-21T10:41:06.803Z,11.04
2022-10-21T10:43:36.592Z,11.12
2022-10-21T10:46:10.331Z,11.09
2022-10-21T10:48:45.133Z,11.14
2022-10-21T10:51:33.847Z,11.15
2022-10-21T10:54:07.252Z,11.25
2022-10-21T10:56:37.525Z,11.33
2022-10-21T10:59:13.383Z,11.52
2022-10-21T11:01:54.049Z,11.62
2022-10-21T11:04:31.997Z,11.72
2022-10-21T11:07:08.542Z,11.93
2022-10-21T11:09:36.593Z,12.12
2022-10-21T11:12:11.768Z,12.26
2022-10-21T11:14:38.979Z,12.38
2022-10-21T11:17:16.477Z,12.51
2022-10-21T11:19:51.758Z,12.37
2022-10-21T11:22:24.806Z,12.52
2022-10-21T11:24:57.647Z,12.78
2022-10-21T11:27:25.678Z,12.91
2022-10-21T11:29:59.092Z,12.92
2022-10-21T11:32:47.875Z,12.96
2022-10-21T11:36:08.568Z,12.91
2022-10-21T11:38:55.012Z,12.88
2022-10-21T11:41:40.548Z,12.83
2022-10-21T11:44:10.612Z,12.80
2022-10-21T11:46:48.952Z,12.79
2022-10-21T11:49:39.565Z,12.80
2022-10-21T11:52:18.412Z,12.76
2022-10-21T11:54:59.698Z,12.74
2022-10-21T11:57:45.165Z,12.68
2022-10-21T12:00:22.252Z,12.65
2022-10-21T12:02:55.522Z,12.62
2022-10-21T12:05:31.864Z,12.76
2022-10-21T12:08:10.705Z,12.65
2022-10-21T12:10:51.033Z,12.72
2022-10-21T12:13:28.376Z,12.76
2022-10-21T12:16:00.478Z,12.75
2022-10-21T12:18:30.458Z,12.79
2022-10-21T12:20:58.739Z,12.64
2022-10-21T12:23:29.150Z,12.77
2022-10-21T12:26:22.575Z,12.72
2022-10-21T12:29:25.254Z,12.71
2022-10-21T12:32:16.842Z,12.76
2022-10-21T12:34:45.029Z,12.61
2022-10-21T12:37:43.601Z,12.59
2022-10-21T12:40:17.584Z,12.61
2022-10-21T12:42:47.987Z,12.58
2022-10-21T12:45:34.880Z,12.37
2022-10-21T12:48:06.980Z,12.20
2022-10-21T12:50:35.030Z,12.07
2022-10-21T12:53:29.890Z,11.93
2022-10-21T12:56:01.274Z,11.82
2022-10-21T12:58:45.774Z,11.51
2022-10-21T13:02:08.416Z,11.41
2022-10-21T13:04:36.374Z,11.20
2022-10-21T13:07:15.942Z,11.07
2022-10-21T13:10:06.133Z,10.89
2022-10-21T13:12:33.965Z,10.77
2022-10-21T13:15:01.223Z,10.64
2022-10-21T13:17:29.682Z,10.56
2022-10-21T13:20:06.427Z,10.37
2022-10-21T13:22:46.259Z,10.32
2022-10-21T13:25:19.262Z,10.20
2022-10-21T13:27:51.963Z,10.13
2022-10-21T13:30:48.289Z,10.00
2022-10-21T13:33:21.806Z,9.88
2022-10-21T13:36:40.030Z,9.77
2022-10-21T13:39:23.115Z,9.75
2022-10-21T13:42:06.972Z,9.69
2022-10-21T13:44:38.430Z,9.67
2022-10-21T13:47:31.295Z,9.55
2022-10-21T13:50:17.098Z,9.49
2022-10-21T13:52:45.009Z,9.37
2022-10-21T13:55:22.371Z,9.32
2022-10-21T13:57:52.275Z,9.25
2022-10-21T14:00:29.206Z,9.20
2022-10-21T14:03:05.155Z,9.19
2022-10-21T14:06:02.021Z,9.17
2022-10-21T14:08:38.660Z,9.07
2022-10-21T14:11:14.322Z,9.07
2022-10-21T14:13:42.232Z,9.07
2022-10-21T14:16:10.125Z,9.07
2022-10-21T14:18:41.263Z,9.06
2022-10-21T14:21:18.280Z,9.01
2022-10-21T14:23:46.840Z,8.97
2022-10-21T14:26:14.714Z,8.92
2022-10-21T14:28:45.605Z,8.87
2022-10-21T14:31:14.915Z,8.84
2022-10-21T14:33:45.532Z,8.83
2022-10-21T14:36:26.033Z,8.83
2022-10-21T14:38:55.265Z,8.79
2022-10-21T14:41:31.733Z,8.77
2022-10-21T14:44:06.819Z,8.78
2022-10-21T14:46:45.467Z,8.81
2022-10-21T14:49:29.439Z,8.78
2022-10-21T14:51:58.852Z,8.86
2022-10-21T14:54:31.317Z,8.84
2022-10-21T14:57:01.395Z,8.79
2022-10-21T14:59:37.365Z,8.74
2022-10-21T15:02:13.606Z,8.72
2022-10-21T15:04:42.908Z,8.73
2022-10-21T15:10:03.942Z,8.64
2022-10-21T15:12:42.855Z,8.63
2022-10-21T15:15:48.353Z,8.63
2022-10-21T15:18:22.119Z,8.58
2022-10-21T15:21:25.528Z,8.54
2022-10-21T15:23:57.678Z,8.54
2022-10-21T15:26:40.292Z,8.56
2022-10-21T15:29:35.322Z,8.50
2022-10-21T15:32:03.943Z,8.49
2022-10-21T15:34:31.691Z,8.51
2022-10-21T15:36:58.972Z,8.51
2022-10-21T15:39:26.205Z,8.49
2022-10-21T15:41:55.387Z,8.45
2022-10-21T15:44:33.901Z,8.39
2022-10-21T15:47:02.906Z,8.41
2022-10-21T15:49:37.972Z,8.40
2022-10-21T15:52:05.674Z,8.40
2022-10-21T15:54:33.752Z,8.49
2022-10-21T15:57:02.474Z,8.43
2022-10-21T15:59:32.460Z,8.41
2022-10-21T16:02:06.533Z,8.42
2022-10-21T16:04:34.854Z,8.40
2022-10-21T16:07:04.973Z,8.43
2022-10-21T16:09:40.052Z,8.45
2022-10-21T16:12:10.332Z,8.38
2022-10-21T16:14:39.681Z,8.40
2022-10-21T16:17:09.799Z,8.37
2022-10-21T16:19:37.372Z,8.37
2022-10-21T16:22:11.627Z,8.32
2022-10-21T16:24:42.394Z,8.33
2022-10-21T16:27:31.228Z,8.32
2022-10-21T16:30:28.140Z,8.31
2022-10-21T16:33:27.093Z,8.28
2022-10-21T16:35:57.969Z,8.28
2022-10-21T16:38:26.964Z,8.27
2022-10-21T16:40:55.711Z,8.22
2022-10-21T16:43:28.139Z,8.24
2022-10-21T16:45:56.274Z,8.21
2022-10-21T16:48:23.734Z,8.22
2022-10-21T16:50:50.956Z,8.18
2022-10-21T16:53:24.306Z,8.16
2022-10-21T16:55:51.702Z,8.17
2022-10-21T16:58:20.394Z,8.19
2022-10-21T17:00:50.640Z,8.17
2022-10-21T17:03:18.134Z,8.14
2022-10-21T17:05:45.404Z,8.13
2022-10-21T17:08:14.253Z,8.16
2022-10-21T17:10:43.017Z,8.14
2022-10-21T17:13:12.106Z,8.13
2022-10-21T17:15:41.209Z,8.18
2022-10-21T17:18:13.139Z,8.16
2022-10-21T17:20:44.449Z,8.10
2022-10-21T17:23:11.887Z,8.21
2022-10-21T17:25:39.103Z,8.16
2022-10-21T17:28:07.674Z,8.14
2022-10-21T17:30:35.089Z,8.16
2022-10-21T17:33:02.746Z,8.14
2022-10-21T17:35:31.213Z,8.17
2022-10-21T17:37:58.805Z,8.22
2022-10-21T17:40:27.404Z,8.22
2022-10-21T17:42:54.878Z,8.21
2022-10-21T17:45:22.875Z,8.20
2022-10-21T17:47:50.744Z,8.19
2022-10-21T17:50:24.741Z,8.23
2022-10-21T17:52:55.174Z,8.23
2022-10-21T17:55:22.617Z,8.24
2022-10-21T17:57:49.882Z,8.25
2022-10-21T18:00:17.215Z,8.29
2022-10-21T18:02:44.532Z,8.33
2022-10-21T18:05:11.849Z,8.32
2022-10-21T18:07:39.410Z,8.34
2022-10-21T18:10:07.751Z,8.35
2022-10-21T18:12:35.579Z,8.39
2022-10-21T18:15:03.778Z,8.40
2022-10-21T18:17:32.433Z,8.45
2022-10-21T18:19:59.601Z,8.58
2022-10-21T18:22:26.900Z,8.66
2022-10-21T18:24:54.216Z,8.65
2022-10-21T18:27:22.139Z,8.62
2022-10-21T18:29:49.363Z,8.60
2022-10-21T18:32:17.005Z,8.57
2022-10-21T18:34:44.302Z,8.61
2022-10-21T18:37:11.673Z,8.70
2022-10-21T18:39:38.870Z,8.74
2022-10-21T18:42:06.769Z,8.85
2022-10-21T18:44:35.219Z,8.83
2022-10-21T18:47:03.314Z,8.78
2022-10-21T18:49:35.459Z,8.69
2022-10-21T18:52:03.638Z,8.67
2022-10-21T18:54:30.977Z,8.67
2022-10-21T18:56:58.757Z,8.72
2022-10-21T18:59:26.493Z,8.78
2022-10-21T19:01:54.992Z,8.83
2022-10-21T19:04:22.469Z,8.81
2022-10-21T19:06:50.002Z,8.80
2022-10-21T19:09:20.863Z,8.86
2022-10-21T19:11:48.940Z,8.84
2022-10-21T19:14:16.475Z,8.89
2022-10-21T19:16:45.128Z,8.93
2022-10-21T19:19:13.723Z,8.95
2022-10-21T19:21:41.195Z,8.98
2022-10-21T19:24:09.730Z,9.02
2022-10-21T19:26:39.094Z,9.04
2022-10-21T19:29:13.483Z,9.03
2022-10-21T19:31:41.988Z,9.11
2022-10-21T19:34:12.355Z,9.12
2022-10-21T19:36:39.763Z,9.14
2022-10-21T19:39:07.545Z,9.10
2022-10-21T19:41:35.652Z,9.08
2022-10-21T19:44:03.710Z,9.05
2022-10-21T19:46:33.197Z,9.07
2022-10-21T19:49:02.795Z,9.11
2022-10-21T19:51:30.288Z,9.20
2022-10-21T19:53:58.053Z,9.35
2022-10-21T19:56:29.641Z,9.38
2022-10-21T19:58:58.179Z,9.44
2022-10-21T20:01:26.677Z,9.61
2022-10-21T20:03:54.945Z,9.52
2022-10-21T20:06:25.472Z,9.48
2022-10-21T20:08:57.971Z,9.54
2022-10-21T20:11:26.045Z,9.55
2022-10-21T20:13:53.455Z,9.54
2022-10-21T20:16:33.144Z,9.49
2022-10-21T20:19:03.444Z,9.50
2022-10-21T20:21:32.506Z,9.49
2022-10-21T20:24:00.658Z,9.48
2022-10-21T20:26:29.009Z,9.50
2022-10-21T20:28:57.013Z,9.48
2022-10-21T20:31:24.222Z,9.48
2022-10-21T20:33:52.183Z,9.55
2022-10-21T20:36:24.257Z,9.59
2022-10-21T20:38:53.341Z,9.60
2022-10-21T20:41:24.093Z,9.61
2022-10-21T20:43:52.723Z,9.67
2022-10-21T20:46:22.324Z,9.67
2022-10-21T20:48:51.692Z,9.71
2022-10-21T20:51:24.814Z,9.66
2022-10-21T20:54:00.661Z,9.67
2022-10-21T20:56:29.983Z,9.72
2022-10-21T20:58:58.296Z,9.64
2022-10-21T21:01:30.983Z,9.61
2022-10-21T21:04:00.820Z,9.60
2022-10-21T21:06:28.905Z,9.60
2022-10-21T21:09:29.050Z,9.57
2022-10-21T21:11:43.805Z,9.63
2022-10-21T21:14:11.285Z,9.57
2022-10-21T21:16:38.795Z,9.54
2022-10-21T21:19:08.731Z,9.56
2022-10-21T21:21:37.311Z,9.57
2022-10-21T21:24:05.534Z,9.56
2022-10-21T21:26:36.399Z,9.62
2022-10-21T21:29:06.335Z,9.64
2022-10-21T21:31:35.933Z,9.67
2022-10-21T21:34:03.588Z,9.69
2022-10-21T21:36:30.854Z,9.73
2022-10-21T21:38:58.124Z,9.74
2022-10-21T21:41:26.017Z,9.82
2022-10-21T21:43:53.637Z,9.74
2022-10-21T21:46:24.636Z,9.76
2022-10-21T21:49:01.010Z,9.76
2022-10-21T21:51:31.896Z,9.77
2022-10-21T21:53:59.856Z,9.71
2022-10-21T21:56:27.925Z,9.69
2022-10-21T21:58:57.829Z,9.65
2022-10-21T22:01:28.237Z,9.61
2022-10-21T22:03:56.711Z,9.60
2022-10-21T22:09:00.163Z,9.67
2022-10-21T22:11:30.589Z,9.75
2022-10-21T22:13:58.613Z,9.87
2022-10-21T22:16:30.253Z,10.03
2022-10-21T22:19:00.318Z,10.09
2022-10-21T22:21:29.524Z,10.16
2022-10-21T22:23:56.858Z,10.01
2022-10-21T22:26:26.947Z,9.91
2022-10-21T22:28:54.546Z,9.89
2022-10-21T22:31:27.399Z,9.88
2022-10-21T22:33:59.827Z,9.80
2022-10-21T22:36:27.796Z,9.84
2022-10-21T22:38:55.080Z,9.74
2022-10-21T22:41:22.283Z,9.71
2022-10-21T22:43:49.572Z,9.74
2022-10-21T22:49:04.761Z,9.61
2022-10-21T22:51:34.042Z,9.62
2022-10-21T22:54:01.626Z,9.60
2022-10-21T22:56:29.038Z,9.57
2022-10-21T22:58:57.758Z,9.58
2022-10-21T23:01:28.997Z,9.58
2022-10-21T23:03:58.395Z,9.67
2022-10-21T23:06:25.641Z,9.71
2022-10-21T23:08:53.006Z,9.64
2022-10-21T23:11:20.352Z,9.56
2022-10-21T23:13:56.509Z,9.53
2022-10-21T23:16:31.341Z,9.51
2022-10-21T23:18:59.183Z,9.43
2022-10-21T23:21:27.690Z,9.43
2022-10-21T23:23:54.916Z,9.45
2022-10-21T23:26:22.198Z,9.43
2022-10-21T23:28:49.632Z,9.45
2022-10-21T23:31:17.153Z,9.41
2022-10-21T23:33:44.439Z,9.43
2022-10-21T23:36:12.122Z,9.42
2022-10-21T23:38:39.507Z,9.41
2022-10-21T23:41:06.822Z,9.43
2022-10-21T23:43:34.040Z,9.43
2022-10-21T23:46:02.670Z,9.44
2022-10-21T23:48:30.001Z,9.46
2022-10-21T23:50:57.406Z,9.45
2022-10-21T23:53:24.636Z,9.45
2022-10-21T23:55:51.949Z,9.47
2022-10-21T23:58:19.280Z,9.45
